createdAt,value
2017-08-19T00:01:10.883Z,16.50
2017-08-19T00:03:38.935Z,16.60
2017-08-19T00:06:07.006Z,16.60
2017-08-19T00:08:35.067Z,16.50
2017-08-19T00:11:03.118Z,16.60
2017-08-19T00:13:31.196Z,16.60
2017-08-19T00:15:59.260Z,16.50
2017-08-19T00:18:27.340Z,16.40
2017-08-19T00:20:55.388Z,16.40
2017-08-19T00:23:23.446Z,16.40
2017-08-19T00:25:52.283Z,16.50
2017-08-19T00:28:21.207Z,16.40
2017-08-19T00:30:49.245Z,16.30
2017-08-19T00:33:17.295Z,16.30
2017-08-19T00:35:46.133Z,16.30
2017-08-19T00:38:14.201Z,16.20
2017-08-19T00:40:42.267Z,16.20
2017-08-19T00:43:10.335Z,16.10
2017-08-19T00:45:38.407Z,16.10
2017-08-19T00:48:06.484Z,16.20
2017-08-19T00:50:34.530Z,16.20
2017-08-19T00:53:02.595Z,16.30
2017-08-19T00:55:31.419Z,16.40
2017-08-19T00:57:59.491Z,16.40
2017-08-19T01:00:27.575Z,16.50
2017-08-19T01:02:55.643Z,16.30
2017-08-19T01:05:23.709Z,16.00
2017-08-19T01:07:51.774Z,16.00
2017-08-19T01:10:19.835Z,15.80
2017-08-19T01:12:47.907Z,15.70
2017-08-19T01:15:15.977Z,15.80
2017-08-19T01:17:44.050Z,15.90
2017-08-19T01:20:12.135Z,16.10
2017-08-19T01:22:40.190Z,16.10
2017-08-19T01:25:20.175Z,16.00
2017-08-19T01:27:49.839Z,15.90
2017-08-19T01:30:17.915Z,15.90
2017-08-19T01:32:45.967Z,15.90
2017-08-19T01:35:14.043Z,15.80
2017-08-19T01:37:42.106Z,15.90
2017-08-19T01:40:10.165Z,15.80
2017-08-19T01:42:38.242Z,15.70
2017-08-19T01:45:06.283Z,15.50
2017-08-19T01:47:35.135Z,15.50
2017-08-19T01:50:03.200Z,15.40
2017-08-19T01:52:31.674Z,15.30
2017-08-19T01:54:59.698Z,15.40
2017-08-19T01:57:27.756Z,15.50
2017-08-19T01:59:56.582Z,15.50
2017-08-19T02:02:24.655Z,15.40
2017-08-19T02:04:52.759Z,15.60
2017-08-19T02:07:20.794Z,15.60
2017-08-19T02:09:48.883Z,15.50
2017-08-19T02:12:16.950Z,15.50
2017-08-19T02:14:45.026Z,15.40
2017-08-19T02:17:13.110Z,15.40
2017-08-19T02:19:41.179Z,15.50
2017-08-19T02:22:09.266Z,15.50
2017-08-19T02:24:37.339Z,15.40
2017-08-19T02:27:05.549Z,15.40
2017-08-19T02:29:34.382Z,15.40
2017-08-19T02:32:02.442Z,15.30
2017-08-19T02:34:30.500Z,15.50
2017-08-19T02:36:58.660Z,15.40
2017-08-19T02:39:26.701Z,15.50
2017-08-19T02:41:54.759Z,15.50
2017-08-19T02:44:22.864Z,15.40
2017-08-19T02:46:50.891Z,15.20
2017-08-19T02:49:18.952Z,15.30
2017-08-19T02:51:47.023Z,15.30
2017-08-19T02:54:15.170Z,15.40
2017-08-19T02:56:43.232Z,15.40
2017-08-19T02:59:11.289Z,15.50
2017-08-19T03:01:39.355Z,15.50
2017-08-19T03:04:08.175Z,15.30
2017-08-19T03:06:36.255Z,15.20
2017-08-19T03:09:04.329Z,15.20
2017-08-19T03:11:32.361Z,15.30
2017-08-19T03:14:01.195Z,15.30
2017-08-19T03:16:29.290Z,15.30
2017-08-19T03:18:57.344Z,15.20
2017-08-19T03:21:25.409Z,15.10
2017-08-19T03:23:53.487Z,15.10
2017-08-19T03:26:21.543Z,15.20
2017-08-19T03:28:49.604Z,15.30
2017-08-19T03:31:17.680Z,15.40
2017-08-19T03:33:45.730Z,15.30
2017-08-19T03:36:13.791Z,15.40
2017-08-19T03:38:42.635Z,15.20
2017-08-19T03:41:10.692Z,15.20
2017-08-19T03:43:38.811Z,15.10
2017-08-19T03:46:06.870Z,15.10
2017-08-19T03:48:34.946Z,15.10
2017-08-19T03:51:03.014Z,14.90
2017-08-19T03:53:31.062Z,14.80
2017-08-19T03:55:59.159Z,14.70
2017-08-19T03:58:27.227Z,14.70
2017-08-19T04:00:55.287Z,14.90
2017-08-19T04:03:23.356Z,15.00
2017-08-19T04:05:51.422Z,15.00
2017-08-19T04:08:19.490Z,15.10
2017-08-19T04:10:47.564Z,15.20
2017-08-19T04:13:15.641Z,15.20
2017-08-19T04:15:43.706Z,15.00
2017-08-19T04:18:11.798Z,14.90
2017-08-19T04:20:39.878Z,15.00
2017-08-19T04:23:07.953Z,15.00
2017-08-19T04:25:36.641Z,14.90
2017-08-19T04:28:04.711Z,14.70
2017-08-19T04:30:32.766Z,14.70
2017-08-19T04:33:00.850Z,14.70
2017-08-19T04:35:28.915Z,14.70
2017-08-19T04:37:56.982Z,14.70
2017-08-19T04:40:25.042Z,14.80
2017-08-19T04:42:53.118Z,14.70
2017-08-19T04:45:21.196Z,14.70
2017-08-19T04:47:49.234Z,14.70
2017-08-19T04:50:18.079Z,14.80
2017-08-19T04:52:46.140Z,14.70
2017-08-19T04:55:14.215Z,14.90
2017-08-19T04:57:42.271Z,14.90
2017-08-19T05:00:10.342Z,15.00
2017-08-19T05:02:38.447Z,15.10
2017-08-19T05:05:06.503Z,15.00
2017-08-19T05:07:34.580Z,15.00
2017-08-19T05:10:02.635Z,15.00
2017-08-19T05:12:30.697Z,14.90
2017-08-19T05:14:58.762Z,14.70
2017-08-19T05:17:26.855Z,14.60
2017-08-19T05:19:54.927Z,14.50
2017-08-19T05:22:22.998Z,14.50
2017-08-19T05:24:51.076Z,14.70
2017-08-19T05:27:19.141Z,14.70
2017-08-19T05:29:47.202Z,14.60
2017-08-19T05:32:15.261Z,14.70
2017-08-19T05:34:44.098Z,14.80
2017-08-19T05:37:12.170Z,14.70
2017-08-19T05:39:40.238Z,14.90
2017-08-19T05:42:08.308Z,14.90
2017-08-19T05:44:36.387Z,14.90
2017-08-19T05:47:04.463Z,15.00
2017-08-19T05:49:32.526Z,15.00
2017-08-19T05:52:00.716Z,14.90
2017-08-19T05:54:28.776Z,15.00
2017-08-19T05:56:56.847Z,14.90
2017-08-19T05:59:24.902Z,14.90
2017-08-19T06:01:52.970Z,15.00
2017-08-19T06:04:21.036Z,15.10
2017-08-19T06:06:49.117Z,15.30
2017-08-19T06:09:17.210Z,15.20
2017-08-19T06:11:45.249Z,15.10
2017-08-19T06:14:13.325Z,15.00
2017-08-19T06:16:41.402Z,15.10
2017-08-19T06:19:09.483Z,15.10
2017-08-19T06:21:37.531Z,15.10
2017-08-19T06:24:05.619Z,15.30
2017-08-19T06:26:33.673Z,15.30
2017-08-19T06:29:01.760Z,15.30
2017-08-19T06:31:29.835Z,15.40
2017-08-19T06:33:57.901Z,15.50
2017-08-19T06:36:25.977Z,15.60
2017-08-19T06:38:54.041Z,15.70
2017-08-19T06:41:22.110Z,15.80
2017-08-19T06:43:50.167Z,15.60
2017-08-19T06:46:18.259Z,15.60
2017-08-19T06:48:46.334Z,15.60
2017-08-19T06:51:14.402Z,15.80
2017-08-19T06:53:42.476Z,15.80
2017-08-19T06:56:10.558Z,15.70
2017-08-19T06:58:38.624Z,15.80
2017-08-19T07:01:06.727Z,15.90
2017-08-19T07:03:34.768Z,16.00
2017-08-19T07:06:02.838Z,16.10
2017-08-19T07:08:30.934Z,16.00
2017-08-19T07:10:58.969Z,16.10
2017-08-19T07:13:27.044Z,16.10
2017-08-19T07:15:55.137Z,16.10
2017-08-19T07:18:24.141Z,16.00
2017-08-19T07:20:52.199Z,16.10
2017-08-19T07:23:20.289Z,16.20
2017-08-19T07:25:48.344Z,16.10
2017-08-19T07:28:16.411Z,16.20
2017-08-19T07:30:44.487Z,16.40
2017-08-19T07:33:12.574Z,16.50
2017-08-19T07:35:40.812Z,16.50
2017-08-19T07:38:10.857Z,16.70
2017-08-19T07:40:39.698Z,16.80
2017-08-19T07:43:07.747Z,16.80
2017-08-19T07:45:35.832Z,16.90
2017-08-19T07:48:03.917Z,17.00
2017-08-19T07:50:31.976Z,17.10
2017-08-19T07:53:00.066Z,17.10
2017-08-19T07:55:28.140Z,17.40
2017-08-19T07:57:56.211Z,17.60
2017-08-19T08:00:24.273Z,17.70
2017-08-19T08:02:52.346Z,17.70
2017-08-19T08:05:20.412Z,17.80
2017-08-19T08:07:48.490Z,17.90
2017-08-19T08:10:16.551Z,17.90
2017-08-19T08:12:44.627Z,18.10
2017-08-19T08:15:12.711Z,18.20
2017-08-19T08:17:40.771Z,18.30
2017-08-19T08:20:08.895Z,18.30
2017-08-19T08:22:37.730Z,18.30
2017-08-19T08:25:05.798Z,18.20
2017-08-19T08:27:33.850Z,18.30
2017-08-19T08:30:01.919Z,18.30
2017-08-19T08:32:31.446Z,18.20
2017-08-19T08:34:59.630Z,18.00
2017-08-19T08:37:27.670Z,17.80
2017-08-19T08:39:55.730Z,17.80
2017-08-19T08:42:24.563Z,18.10
2017-08-19T08:44:52.628Z,18.10
2017-08-19T08:47:20.760Z,18.00
2017-08-19T08:49:49.600Z,17.90
2017-08-19T08:52:17.666Z,17.90
2017-08-19T08:54:45.748Z,18.00
2017-08-19T08:57:13.803Z,18.10
2017-08-19T08:59:41.871Z,18.20
2017-08-19T09:02:09.939Z,18.50
2017-08-19T09:04:38.026Z,18.40
2017-08-19T09:07:06.076Z,18.50
2017-08-19T09:09:34.148Z,18.40
2017-08-19T09:12:02.239Z,18.50
2017-08-19T09:14:30.319Z,18.50
2017-08-19T09:16:58.387Z,18.40
2017-08-19T09:19:26.456Z,18.50
2017-08-19T09:21:54.543Z,18.60
2017-08-19T09:24:22.626Z,18.60
2017-08-19T09:26:50.687Z,19.00
2017-08-19T09:29:18.744Z,19.50
2017-08-19T09:31:46.824Z,19.80
2017-08-19T09:34:14.867Z,19.80
2017-08-19T09:36:43.719Z,19.80
2017-08-19T09:39:11.803Z,19.80
2017-08-19T09:41:39.875Z,20.00
2017-08-19T09:44:07.948Z,19.90
2017-08-19T09:46:36.019Z,20.80
2017-08-19T09:49:04.095Z,20.50
2017-08-19T09:51:32.207Z,20.50
2017-08-19T09:54:00.265Z,20.90
2017-08-19T09:56:29.103Z,20.70
2017-08-19T09:58:57.173Z,20.60
2017-08-19T10:01:25.230Z,20.60
2017-08-19T10:03:53.352Z,20.50
2017-08-19T10:06:21.662Z,20.50
2017-08-19T10:09:01.375Z,20.80
2017-08-19T10:11:31.439Z,20.60
2017-08-19T10:13:59.498Z,20.50
2017-08-19T10:16:27.572Z,20.70
2017-08-19T10:18:55.648Z,20.40
2017-08-19T10:21:23.720Z,19.90
2017-08-19T10:23:51.782Z,19.80
2017-08-19T10:26:19.863Z,19.70
2017-08-19T10:28:47.928Z,19.50
2017-08-19T10:31:16.022Z,19.60
2017-08-19T10:33:44.534Z,20.30
2017-08-19T10:36:12.608Z,22.40
2017-08-19T10:38:40.687Z,25.20
2017-08-19T10:41:08.754Z,25.70
2017-08-19T10:43:36.826Z,25.60
2017-08-19T10:46:04.913Z,24.90
2017-08-19T10:48:33.779Z,23.60
2017-08-19T10:51:01.834Z,23.50
2017-08-19T10:53:29.946Z,22.90
2017-08-19T10:55:57.982Z,21.90
2017-08-19T10:58:26.055Z,21.40
2017-08-19T11:00:54.131Z,21.00
2017-08-19T11:03:22.239Z,20.80
2017-08-19T11:05:50.309Z,20.80
2017-08-19T11:08:19.148Z,20.60
2017-08-19T11:10:47.228Z,20.50
2017-08-19T11:13:15.324Z,20.30
2017-08-19T11:15:43.431Z,20.70
2017-08-19T11:18:12.239Z,21.30
2017-08-19T11:20:40.292Z,21.20
2017-08-19T11:23:08.375Z,21.40
2017-08-19T11:25:36.459Z,22.60
2017-08-19T11:28:04.555Z,23.90
2017-08-19T11:30:32.630Z,23.90
2017-08-19T11:33:00.670Z,24.30
2017-08-19T11:35:28.795Z,25.70
2017-08-19T11:37:56.859Z,27.10
2017-08-19T11:40:25.097Z,28.70
2017-08-19T11:42:53.122Z,30.00
2017-08-19T11:45:21.991Z,29.40
2017-08-19T11:47:50.073Z,29.30
2017-08-19T11:50:18.140Z,28.70
2017-08-19T11:52:46.206Z,26.80
2017-08-19T11:55:14.286Z,25.30
2017-08-19T11:57:42.371Z,24.50
2017-08-19T12:00:11.224Z,23.20
2017-08-19T12:02:39.302Z,23.00
2017-08-19T12:05:07.440Z,22.20
2017-08-19T12:07:35.519Z,21.70
2017-08-19T12:10:03.578Z,21.10
2017-08-19T12:12:31.644Z,21.40
2017-08-19T12:14:59.722Z,21.60
2017-08-19T12:17:27.798Z,21.70
2017-08-19T12:19:55.869Z,21.30
2017-08-19T12:22:23.954Z,21.20
2017-08-19T12:24:52.026Z,21.40
2017-08-19T12:27:20.081Z,21.30
2017-08-19T12:29:48.143Z,21.10
2017-08-19T12:32:16.227Z,20.80
2017-08-19T12:34:44.324Z,20.80
2017-08-19T12:37:12.391Z,20.90
2017-08-19T12:39:40.443Z,21.00
2017-08-19T12:42:08.523Z,21.30
2017-08-19T12:44:36.566Z,21.20
2017-08-19T12:47:04.679Z,21.30
2017-08-19T12:49:32.752Z,21.30
2017-08-19T12:52:00.809Z,21.50
2017-08-19T12:54:28.892Z,21.70
2017-08-19T12:56:57.778Z,21.60
2017-08-19T12:59:25.867Z,21.30
2017-08-19T13:01:53.949Z,21.00
2017-08-19T13:04:22.768Z,21.30
2017-08-19T13:06:50.855Z,21.30
2017-08-19T13:09:20.388Z,21.30
2017-08-19T13:11:48.467Z,21.40
2017-08-19T13:14:16.540Z,21.60
2017-08-19T13:16:44.631Z,21.50
2017-08-19T13:19:13.600Z,21.40
2017-08-19T13:21:41.678Z,21.40
2017-08-19T13:24:09.739Z,21.30
2017-08-19T13:26:37.798Z,21.30
2017-08-19T13:29:05.869Z,21.20
2017-08-19T13:31:33.930Z,21.20
2017-08-19T13:34:02.120Z,21.20
2017-08-19T13:36:30.161Z,21.30
2017-08-19T13:38:58.272Z,21.30
2017-08-19T13:41:26.315Z,21.30
2017-08-19T13:43:55.151Z,21.20
2017-08-19T13:46:23.261Z,21.20
2017-08-19T13:48:51.300Z,21.30
2017-08-19T13:51:19.399Z,21.60
2017-08-19T13:53:47.467Z,21.90
2017-08-19T13:56:15.534Z,22.10
2017-08-19T13:58:43.591Z,22.10
2017-08-19T14:01:11.660Z,21.80
2017-08-19T14:03:39.731Z,21.50
2017-08-19T14:06:07.800Z,21.20
2017-08-19T14:08:35.876Z,21.00
2017-08-19T14:11:04.015Z,20.90
2017-08-19T14:13:32.819Z,20.60
2017-08-19T14:16:00.941Z,20.60
2017-08-19T14:18:29.050Z,20.50
2017-08-19T14:20:57.150Z,20.30
2017-08-19T14:23:25.236Z,19.90
2017-08-19T14:25:53.311Z,19.80
2017-08-19T14:28:21.377Z,20.00
2017-08-19T14:30:49.447Z,20.30
2017-08-19T14:33:17.515Z,20.50
2017-08-19T14:35:45.599Z,20.60
2017-08-19T14:38:13.655Z,20.60
2017-08-19T14:40:41.731Z,20.70
2017-08-19T14:43:09.796Z,20.60
2017-08-19T14:45:37.896Z,20.50
2017-08-19T14:48:06.804Z,20.40
2017-08-19T14:50:34.890Z,20.30
2017-08-19T14:53:02.987Z,20.30
2017-08-19T14:55:31.060Z,20.50
2017-08-19T14:57:59.134Z,20.60
2017-08-19T15:00:27.208Z,20.60
2017-08-19T15:02:55.327Z,20.30
2017-08-19T15:05:23.508Z,19.80
2017-08-19T15:07:52.302Z,18.90
2017-08-19T15:10:20.436Z,18.80
2017-08-19T15:12:49.263Z,18.90
2017-08-19T15:15:17.351Z,18.90
2017-08-19T15:17:45.450Z,19.10
2017-08-19T15:20:13.506Z,19.30
2017-08-19T15:22:41.600Z,19.40
2017-08-19T15:25:09.673Z,19.50
2017-08-19T15:27:37.862Z,19.60
2017-08-19T15:30:05.889Z,19.70
2017-08-19T15:32:33.950Z,20.00
2017-08-19T15:35:02.027Z,20.10
2017-08-19T15:37:30.093Z,20.00
2017-08-19T15:39:58.162Z,19.80
2017-08-19T15:42:26.232Z,19.80
2017-08-19T15:44:54.286Z,19.70
2017-08-19T15:47:22.338Z,19.80
2017-08-19T15:49:50.414Z,19.80
2017-08-19T15:52:18.464Z,19.80
2017-08-19T15:54:46.552Z,19.90
2017-08-19T15:57:14.630Z,20.10
2017-08-19T15:59:42.699Z,19.90
2017-08-19T16:02:10.807Z,19.70
2017-08-19T16:04:38.868Z,19.70
2017-08-19T16:07:06.944Z,19.70
2017-08-19T16:09:34.994Z,19.60
2017-08-19T16:12:03.095Z,19.60
2017-08-19T16:14:31.938Z,19.10
2017-08-19T16:17:00.119Z,19.10
2017-08-19T16:19:28.163Z,18.90
2017-08-19T16:21:56.232Z,18.70
2017-08-19T16:24:24.314Z,18.10
2017-08-19T16:26:52.393Z,17.50
2017-08-19T16:29:20.458Z,17.10
2017-08-19T16:31:48.518Z,16.90
2017-08-19T16:34:16.591Z,16.70
2017-08-19T16:36:44.667Z,16.70
2017-08-19T16:39:14.430Z,16.70
2017-08-19T16:41:42.520Z,16.70
2017-08-19T16:44:10.603Z,16.70
2017-08-19T16:46:38.662Z,16.70
2017-08-19T16:49:06.738Z,16.70
2017-08-19T16:51:34.796Z,16.80
2017-08-19T16:54:02.931Z,16.90
2017-08-19T16:56:31.989Z,16.90
2017-08-19T16:59:00.034Z,16.80
2017-08-19T17:01:28.108Z,16.90
2017-08-19T17:03:56.182Z,17.00
2017-08-19T17:06:24.256Z,17.00
2017-08-19T17:08:52.335Z,17.20
2017-08-19T17:11:20.398Z,17.30
2017-08-19T17:13:48.475Z,17.20
2017-08-19T17:16:16.536Z,17.10
2017-08-19T17:18:44.623Z,17.10
2017-08-19T17:21:12.691Z,17.20
2017-08-19T17:23:40.775Z,17.30
2017-08-19T17:26:08.835Z,17.30
2017-08-19T17:28:36.882Z,17.40
2017-08-19T17:31:04.964Z,17.50
2017-08-19T17:33:33.024Z,17.50
2017-08-19T17:36:01.070Z,17.60
2017-08-19T17:38:29.159Z,17.70
2017-08-19T17:40:57.237Z,17.80
2017-08-19T17:43:25.291Z,17.90
2017-08-19T17:45:53.362Z,17.90
2017-08-19T17:48:21.466Z,17.90
2017-08-19T17:50:49.522Z,17.90
2017-08-19T17:53:17.602Z,18.00
2017-08-19T17:55:45.660Z,18.10
2017-08-19T17:58:13.733Z,18.20
2017-08-19T18:00:41.846Z,18.10
2017-08-19T18:03:09.911Z,18.00
2017-08-19T18:05:37.983Z,17.90
2017-08-19T18:08:06.071Z,18.00
2017-08-19T18:10:34.925Z,17.70
2017-08-19T18:13:02.994Z,17.70
2017-08-19T18:15:31.092Z,17.70
2017-08-19T18:17:59.155Z,17.70
2017-08-19T18:20:27.245Z,17.80
2017-08-19T18:22:55.861Z,17.70
2017-08-19T18:25:23.961Z,17.70
2017-08-19T18:27:52.027Z,17.70
2017-08-19T18:30:20.128Z,17.80
2017-08-19T18:32:48.220Z,17.80
2017-08-19T18:35:17.087Z,17.80
2017-08-19T18:37:45.147Z,17.70
2017-08-19T18:40:14.007Z,17.90
2017-08-19T18:42:42.439Z,17.80
2017-08-19T18:45:11.248Z,17.90
2017-08-19T18:47:39.319Z,17.90
2017-08-19T18:50:07.419Z,17.90
2017-08-19T18:52:35.492Z,17.80
2017-08-19T18:55:03.578Z,17.70
2017-08-19T18:57:32.431Z,17.80
2017-08-19T19:00:00.495Z,17.70
2017-08-19T19:02:28.562Z,17.80
2017-08-19T19:04:56.710Z,17.60
2017-08-19T19:07:25.549Z,17.70
2017-08-19T19:09:53.610Z,17.60
2017-08-19T19:12:21.699Z,17.70
2017-08-19T19:14:49.789Z,17.70
2017-08-19T19:17:17.910Z,17.80
2017-08-19T19:19:45.987Z,17.90
2017-08-19T19:22:14.050Z,17.90
2017-08-19T19:24:42.119Z,17.90
2017-08-19T19:27:10.313Z,17.90
2017-08-19T19:29:38.367Z,17.90
2017-08-19T19:32:06.456Z,17.90
2017-08-19T19:34:34.525Z,18.00
2017-08-19T19:37:02.630Z,18.10
2017-08-19T19:39:30.690Z,18.10
2017-08-19T19:41:58.778Z,18.00
2017-08-19T19:44:26.865Z,18.10
2017-08-19T19:46:54.940Z,18.10
2017-08-19T19:49:22.986Z,18.10
2017-08-19T19:51:51.085Z,18.10
2017-08-19T19:54:19.141Z,18.10
2017-08-19T19:56:47.191Z,18.20
2017-08-19T19:59:15.308Z,18.10
2017-08-19T20:01:43.375Z,17.90
2017-08-19T20:04:11.525Z,17.90
2017-08-19T20:06:39.605Z,17.90
2017-08-19T20:09:07.667Z,17.90
2017-08-19T20:11:35.825Z,17.90
2017-08-19T20:14:04.615Z,17.90
2017-08-19T20:16:32.780Z,17.80
2017-08-19T20:19:00.803Z,17.90
2017-08-19T20:21:28.910Z,17.90
2017-08-19T20:23:57.003Z,17.90
2017-08-19T20:26:25.138Z,17.90
2017-08-19T20:28:53.968Z,17.60
2017-08-19T20:31:22.055Z,17.50
2017-08-19T20:33:50.125Z,17.50
2017-08-19T20:36:18.196Z,17.50
2017-08-19T20:38:46.285Z,17.50
2017-08-19T20:41:15.116Z,17.50
2017-08-19T20:43:43.171Z,17.50
2017-08-19T20:46:11.268Z,17.50
2017-08-19T20:48:39.330Z,17.50
2017-08-19T20:51:07.411Z,17.60
2017-08-19T20:53:35.502Z,17.60
2017-08-19T20:56:03.578Z,17.50
2017-08-19T20:58:31.666Z,17.50
2017-08-19T21:01:00.508Z,17.50
2017-08-19T21:03:28.608Z,17.40
2017-08-19T21:05:56.683Z,17.50
2017-08-19T21:08:24.763Z,17.50
2017-08-19T21:10:52.846Z,17.40
2017-08-19T21:13:21.686Z,17.30
2017-08-19T21:15:49.745Z,17.30
2017-08-19T21:18:17.801Z,17.30
2017-08-19T21:20:45.917Z,17.20
2017-08-19T21:23:13.984Z,17.10
2017-08-19T21:25:42.030Z,17.20
2017-08-19T21:28:10.116Z,17.10
2017-08-19T21:30:38.204Z,17.10
2017-08-19T21:33:06.256Z,17.10
2017-08-19T21:35:34.323Z,17.10
2017-08-19T21:38:02.391Z,17.20
2017-08-19T21:40:30.463Z,17.20
2017-08-19T21:42:58.530Z,17.20
2017-08-19T21:45:26.603Z,17.20
2017-08-19T21:47:54.680Z,17.20
2017-08-19T21:50:22.746Z,17.00
2017-08-19T21:52:50.818Z,17.00
2017-08-19T21:55:18.901Z,17.00
2017-08-19T21:57:47.018Z,17.00
2017-08-19T22:02:49.586Z,17.00
2017-08-19T22:05:17.666Z,17.00
2017-08-19T22:07:45.743Z,16.90
2017-08-19T22:10:13.830Z,16.80
2017-08-19T22:12:42.680Z,16.70
2017-08-19T22:15:10.780Z,16.70
2017-08-19T22:17:38.870Z,16.70
2017-08-19T22:20:06.927Z,16.80
2017-08-19T22:22:35.764Z,16.70
2017-08-19T22:25:03.866Z,16.70
2017-08-19T22:27:31.933Z,16.60
2017-08-19T22:30:00.031Z,16.50
2017-08-19T22:32:28.864Z,16.60
2017-08-19T22:34:56.940Z,16.60
2017-08-19T22:37:25.011Z,16.60
2017-08-19T22:39:53.084Z,16.60
2017-08-19T22:42:21.151Z,16.40
2017-08-19T22:44:49.219Z,16.50
2017-08-19T22:47:17.294Z,16.50
2017-08-19T22:49:45.385Z,16.50
2017-08-19T22:52:14.214Z,16.30
2017-08-19T22:54:42.288Z,16.20
2017-08-19T22:57:10.354Z,16.20
2017-08-19T22:59:38.396Z,16.20
2017-08-19T23:02:06.500Z,16.20
2017-08-19T23:04:34.555Z,16.30
2017-08-19T23:07:02.639Z,16.30
2017-08-19T23:09:30.710Z,16.30
2017-08-19T23:11:58.784Z,16.30
2017-08-19T23:14:26.850Z,16.20
2017-08-19T23:16:55.803Z,16.10
2017-08-19T23:19:24.666Z,16.20
2017-08-19T23:21:52.740Z,16.10
2017-08-19T23:24:20.826Z,16.10
2017-08-19T23:26:48.884Z,16.20
2017-08-19T23:29:16.951Z,16.30
2017-08-19T23:31:45.033Z,16.30
2017-08-19T23:34:13.102Z,16.40
2017-08-19T23:36:41.176Z,16.40
2017-08-19T23:39:09.245Z,16.40
2017-08-19T23:41:37.306Z,16.40
2017-08-19T23:44:05.378Z,16.30
2017-08-19T23:46:33.428Z,16.20
2017-08-19T23:49:02.271Z,16.20
2017-08-19T23:51:30.355Z,16.10
2017-08-19T23:53:58.472Z,16.20
2017-08-19T23:56:26.530Z,16.20
2017-08-19T23:58:55.359Z,16.30
